Time,TemperatureF,DewpointF,PressureIn,WindDirection,WindDirectionDegrees,WindSpeedMPH,WindSpeedGustMPH,Humidity,HourlyPrecipIn,Conditions,Clouds,dailyrainin,SolarRadiationWatts/m^2,SoftwareType,DateUTC
2013-03-09 00:02:00,54.0,38.0,-100.00,WNW,292,8.0,18.0,54,0.00,,,0.08,0.000000,,2013-03-09 05:02:00,
2013-03-09 00:11:00,54.0,38.0,-100.00,WNW,292,8.0,18.0,54,0.00,,,0.08,0.000000,,2013-03-09 05:11:00,
2013-03-09 00:21:00,54.0,38.0,-100.00,WNW,292,8.0,18.0,54,0.00,,,0.08,0.000000,,2013-03-09 05:21:00,
2013-03-09 00:53:00,53.0,37.0,-100.00,WNW,297,7.0,12.0,54,0.00,,,0.08,0.000000,,2013-03-09 05:53:00,
2013-03-09 01:01:00,53.0,37.0,-100.00,WNW,297,7.0,12.0,54,0.00,,,0.08,0.000000,,2013-03-09 06:01:00,
2013-03-09 01:11:00,53.0,37.0,-100.00,WNW,297,7.0,12.0,54,0.00,,,0.08,0.000000,,2013-03-09 06:11:00,
2013-03-09 01:22:00,53.0,37.0,-100.00,WNW,297,7.0,12.0,54,0.00,,,0.08,0.000000,,2013-03-09 06:22:00,
2013-03-09 01:52:00,52.0,37.0,-100.00,ESE,112,1.0,9.0,57,0.00,,,0.08,0.000000,,2013-03-09 06:52:00,
2013-03-09 02:01:00,52.0,37.0,-100.00,ESE,112,1.0,9.0,57,0.00,,,0.08,0.000000,,2013-03-09 07:01:00,
2013-03-09 02:11:00,52.0,37.0,-100.00,ESE,112,1.0,9.0,57,0.00,,,0.08,0.000000,,2013-03-09 07:11:00,
2013-03-09 02:21:00,52.0,37.0,-100.00,ESE,112,1.0,9.0,57,0.00,,,0.08,0.000000,,2013-03-09 07:21:00,
2013-03-09 02:52:00,52.0,37.0,-100.00,WSW,247,4.0,15.0,57,0.00,,,0.08,0.000000,,2013-03-09 07:52:00,
2013-03-09 03:01:00,52.0,37.0,-100.00,WSW,247,4.0,15.0,57,0.00,,,0.08,0.000000,,2013-03-09 08:01:00,
2013-03-09 03:11:00,52.0,37.0,-100.00,WSW,247,4.0,15.0,57,0.00,,,0.08,0.000000,,2013-03-09 08:11:00,
2013-03-09 03:21:00,52.0,37.0,-100.00,WSW,247,4.0,15.0,57,0.00,,,0.08,0.000000,,2013-03-09 08:21:00,
2013-03-09 03:52:00,50.0,35.0,-100.00,ENE,67,2.0,8.0,56,0.00,,,0.08,0.000000,,2013-03-09 08:52:00,
2013-03-09 04:01:00,50.0,35.0,-100.00,ENE,67,2.0,8.0,56,0.00,,,0.08,0.000000,,2013-03-09 09:01:00,
2013-03-09 04:11:00,50.0,35.0,-100.00,ENE,67,2.0,8.0,56,0.00,,,0.08,0.000000,,2013-03-09 09:11:00,
2013-03-09 04:21:00,50.0,35.0,-100.00,ENE,67,2.0,8.0,56,0.00,,,0.08,0.000000,,2013-03-09 09:21:00,
2013-03-09 04:52:00,51.0,34.0,-100.00,WNW,283,4.0,8.0,51,0.00,,,0.08,0.000000,,2013-03-09 09:52:00,
2013-03-09 05:01:00,51.0,34.0,-100.00,WNW,283,4.0,8.0,51,0.00,,,0.08,0.000000,,2013-03-09 10:01:00,
2013-03-09 05:11:00,51.0,34.0,-100.00,WNW,283,4.0,8.0,51,0.00,,,0.08,0.000000,,2013-03-09 10:11:00,
2013-03-09 05:21:00,51.0,34.0,-100.00,WNW,283,4.0,8.0,51,0.00,,,0.08,0.000000,,2013-03-09 10:21:00,
2013-03-09 05:52:00,53.0,37.0,-100.00,WNW,295,7.0,20.0,55,0.00,,,0.08,0.000000,,2013-03-09 10:52:00,
2013-03-09 06:01:00,53.0,37.0,-100.00,WNW,295,7.0,20.0,55,0.00,,,0.08,0.000000,,2013-03-09 11:01:00,
2013-03-09 06:11:00,53.0,37.0,-100.00,WNW,295,7.0,20.0,55,0.00,,,0.08,0.000000,,2013-03-09 11:11:00,
2013-03-09 06:21:00,53.0,37.0,-100.00,WNW,295,7.0,20.0,55,0.00,,,0.08,0.000000,,2013-03-09 11:21:00,
2013-03-09 06:52:00,52.0,37.0,-100.00,WNW,289,8.0,14.0,56,0.00,,,0.08,0.000000,,2013-03-09 11:52:00,
2013-03-09 07:01:00,52.0,37.0,-100.00,WNW,289,8.0,14.0,56,0.00,,,0.08,0.000000,,2013-03-09 12:01:00,
2013-03-09 07:11:00,52.0,37.0,-100.00,WNW,289,8.0,14.0,56,0.00,,,0.08,0.000000,,2013-03-09 12:11:00,
2013-03-09 07:21:00,52.0,37.0,-100.00,WNW,289,8.0,14.0,56,0.00,,,0.08,0.000000,,2013-03-09 12:21:00,
2013-03-09 07:52:00,53.0,39.0,-100.00,WSW,255,8.0,13.0,60,0.00,,,0.08,0.000000,,2013-03-09 12:52:00,
2013-03-09 08:02:00,53.0,39.0,-100.00,WSW,255,8.0,13.0,60,0.00,,,0.08,0.000000,,2013-03-09 13:02:00,
2013-03-09 08:11:00,53.0,39.0,-100.00,WSW,255,8.0,13.0,60,0.00,,,0.08,0.000000,,2013-03-09 13:11:00,
2013-03-09 08:21:00,53.0,39.0,-100.00,WSW,255,8.0,13.0,60,0.00,,,0.08,0.000000,,2013-03-09 13:21:00,
2013-03-09 08:52:00,51.0,39.0,-100.00,SSW,197,3.0,11.0,64,0.00,,,0.08,0.000000,,2013-03-09 13:52:00,
2013-03-09 09:01:00,51.0,39.0,-100.00,SSW,197,3.0,11.0,64,0.00,,,0.08,0.000000,,2013-03-09 14:01:00,
2013-03-09 09:11:00,51.0,39.0,-100.00,SSW,197,3.0,11.0,64,0.00,,,0.08,0.000000,,2013-03-09 14:11:00,
2013-03-09 09:21:00,51.0,39.0,-100.00,SSW,197,3.0,11.0,64,0.00,,,0.08,0.000000,,2013-03-09 14:21:00,
2013-03-09 09:52:00,51.0,40.0,-100.00,SSW,210,7.0,10.0,65,0.00,,,0.08,10.000000,,2013-03-09 14:52:00,
2013-03-09 10:01:00,51.0,40.0,-100.00,SSW,210,7.0,10.0,65,0.00,,,0.08,10.000000,,2013-03-09 15:01:00,
2013-03-09 10:11:00,51.0,40.0,-100.00,SSW,210,7.0,10.0,65,0.00,,,0.08,10.000000,,2013-03-09 15:11:00,
2013-03-09 10:22:00,51.0,40.0,-100.00,SSW,210,7.0,10.0,65,0.00,,,0.08,10.000000,,2013-03-09 15:22:00,
2013-03-09 10:52:00,54.0,39.0,-100.00,SW,220,9.0,13.0,57,0.00,,,0.08,158.000000,,2013-03-09 15:52:00,
2013-03-09 11:01:00,54.0,39.0,-100.00,SW,220,9.0,13.0,57,0.00,,,0.08,158.000000,,2013-03-09 16:01:00,
2013-03-09 11:11:00,54.0,39.0,-100.00,SW,220,9.0,13.0,57,0.00,,,0.08,158.000000,,2013-03-09 16:11:00,
2013-03-09 11:21:00,54.0,39.0,-100.00,SW,220,9.0,13.0,57,0.00,,,0.08,158.000000,,2013-03-09 16:21:00,
2013-03-09 11:52:00,57.0,36.0,-100.00,SW,231,6.0,15.0,46,0.00,,,0.08,408.000000,,2013-03-09 16:52:00,
2013-03-09 12:01:00,57.0,36.0,-100.00,SW,231,6.0,15.0,46,0.00,,,0.08,408.000000,,2013-03-09 17:01:00,
2013-03-09 12:11:00,57.0,36.0,-100.00,SW,231,6.0,15.0,46,0.00,,,0.08,408.000000,,2013-03-09 17:11:00,
2013-03-09 12:22:00,57.0,36.0,-100.00,SW,231,6.0,15.0,46,0.00,,,0.08,408.000000,,2013-03-09 17:22:00,
2013-03-09 12:52:00,59.0,37.0,-100.00,SW,236,11.0,18.0,43,0.00,,,0.05,663.000000,,2013-03-09 17:52:00,
2013-03-09 13:01:00,59.0,37.0,-100.00,SW,236,11.0,18.0,43,0.00,,,0.05,663.000000,,2013-03-09 18:01:00,
2013-03-09 13:11:00,59.0,37.0,-100.00,SW,236,11.0,18.0,43,0.00,,,0.05,663.000000,,2013-03-09 18:11:00,
2013-03-09 13:21:00,59.0,37.0,-100.00,SW,236,11.0,18.0,43,0.00,,,0.05,663.000000,,2013-03-09 18:21:00,
2013-03-09 13:52:00,64.0,39.0,-100.00,WSW,257,8.0,17.0,39,0.00,,,0.00,879.000000,,2013-03-09 18:52:00,
2013-03-09 14:01:00,64.0,39.0,-100.00,WSW,257,8.0,17.0,39,0.00,,,0.00,879.000000,,2013-03-09 19:01:00,
2013-03-09 14:11:00,64.0,39.0,-100.00,WSW,257,8.0,17.0,39,0.00,,,0.00,879.000000,,2013-03-09 19:11:00,
2013-03-09 14:21:00,64.0,39.0,-100.00,WSW,257,8.0,17.0,39,0.00,,,0.00,879.000000,,2013-03-09 19:21:00,
2013-03-09 14:52:00,65.0,37.0,-100.00,West,263,12.0,20.0,35,0.00,,,0.00,1002.000000,,2013-03-09 19:52:00,
2013-03-09 15:01:00,65.0,37.0,-100.00,West,263,12.0,20.0,35,0.00,,,0.00,1002.000000,,2013-03-09 20:01:00,
2013-03-09 15:11:00,65.0,37.0,-100.00,West,263,12.0,20.0,35,0.00,,,0.00,1002.000000,,2013-03-09 20:11:00,
2013-03-09 15:21:00,65.0,37.0,-100.00,West,263,12.0,20.0,35,0.00,,,0.00,1002.000000,,2013-03-09 20:21:00,
2013-03-09 15:52:00,69.0,37.0,-100.00,West,270,10.0,24.0,31,0.00,,,0.00,1058.000000,,2013-03-09 20:52:00,
2013-03-09 16:01:00,69.0,37.0,-100.00,West,270,10.0,24.0,31,0.00,,,0.00,1058.000000,,2013-03-09 21:01:00,
2013-03-09 16:11:00,69.0,37.0,-100.00,West,270,10.0,24.0,31,0.00,,,0.00,1058.000000,,2013-03-09 21:11:00,
2013-03-09 16:21:00,69.0,37.0,-100.00,West,270,10.0,24.0,31,0.00,,,0.00,1058.000000,,2013-03-09 21:21:00,
2013-03-09 16:52:00,68.0,35.0,-100.00,WNW,285,11.0,23.0,29,0.00,,,0.00,977.000000,,2013-03-09 21:52:00,
2013-03-09 17:01:00,68.0,35.0,-100.00,WNW,285,11.0,23.0,29,0.00,,,0.00,977.000000,,2013-03-09 22:01:00,
2013-03-09 17:11:00,68.0,35.0,-100.00,WNW,285,11.0,23.0,29,0.00,,,0.00,977.000000,,2013-03-09 22:11:00,
2013-03-09 17:21:00,68.0,35.0,-100.00,WNW,285,11.0,23.0,29,0.00,,,0.00,977.000000,,2013-03-09 22:21:00,
2013-03-09 17:52:00,69.0,34.0,-100.00,West,262,7.0,19.0,27,0.00,,,0.00,646.000000,,2013-03-09 22:52:00,
2013-03-09 18:01:00,69.0,34.0,-100.00,West,262,7.0,19.0,27,0.00,,,0.00,646.000000,,2013-03-09 23:01:00,
2013-03-09 18:11:00,69.0,34.0,-100.00,West,262,7.0,19.0,27,0.00,,,0.00,646.000000,,2013-03-09 23:11:00,
2013-03-09 18:21:00,69.0,34.0,-100.00,West,262,7.0,19.0,27,0.00,,,0.00,646.000000,,2013-03-09 23:21:00,
2013-03-09 18:52:00,67.0,34.0,-100.00,NNW,334,4.0,20.0,29,0.00,,,0.00,445.000000,,2013-03-09 23:52:00,
2013-03-09 19:01:00,67.0,34.0,-100.00,NNW,334,4.0,20.0,29,0.00,,,0.00,445.000000,,2013-03-10 00:01:00,
2013-03-09 19:11:00,67.0,34.0,-100.00,NNW,334,4.0,20.0,29,0.00,,,0.00,445.000000,,2013-03-10 00:11:00,
2013-03-09 19:22:00,67.0,34.0,-100.00,NNW,334,4.0,20.0,29,0.00,,,0.00,445.000000,,2013-03-10 00:22:00,
2013-03-09 19:52:00,68.0,34.0,-100.00,WNW,299,3.0,17.0,28,0.00,,,0.00,155.000000,,2013-03-10 00:52:00,
2013-03-09 20:01:00,68.0,34.0,-100.00,WNW,299,3.0,17.0,28,0.00,,,0.00,155.000000,,2013-03-10 01:01:00,
2013-03-09 20:11:00,68.0,34.0,-100.00,WNW,299,3.0,17.0,28,0.00,,,0.00,155.000000,,2013-03-10 01:11:00,
2013-03-09 20:21:00,68.0,34.0,-100.00,WNW,299,3.0,17.0,28,0.00,,,0.00,155.000000,,2013-03-10 01:21:00,
2013-03-09 20:52:00,66.0,34.0,-100.00,West,279,6.0,10.0,30,0.00,,,-99.99,37.000000,,2013-03-10 01:52:00,
2013-03-09 21:01:00,66.0,34.0,-100.00,West,279,6.0,10.0,30,0.00,,,-99.99,37.000000,,2013-03-10 02:01:00,
2013-03-09 21:11:00,66.0,34.0,-100.00,West,279,6.0,10.0,30,0.00,,,-99.99,37.000000,,2013-03-10 02:11:00,
2013-03-09 21:22:00,66.0,34.0,-100.00,West,279,6.0,10.0,30,0.00,,,-99.99,37.000000,,2013-03-10 02:22:00,
2013-03-09 21:52:00,66.0,38.0,-100.00,West,277,3.0,8.0,36,0.00,,,-99.99,1.000000,,2013-03-10 02:52:00,
2013-03-09 22:01:00,66.0,38.0,-100.00,West,277,3.0,8.0,36,0.00,,,-99.99,1.000000,,2013-03-10 03:01:00,
2013-03-09 22:11:00,66.0,38.0,-100.00,West,277,3.0,8.0,36,0.00,,,-99.99,1.000000,,2013-03-10 03:11:00,
2013-03-09 22:21:00,66.0,38.0,-100.00,West,277,3.0,8.0,36,0.00,,,-99.99,1.000000,,2013-03-10 03:21:00,
2013-03-09 22:52:00,66.0,34.0,-100.00,NW,305,4.0,7.0,30,0.00,,,0.00,0.000000,,2013-03-10 03:52:00,
2013-03-09 23:01:00,66.0,34.0,-100.00,NW,305,4.0,7.0,30,0.00,,,0.00,0.000000,,2013-03-10 04:01:00,
2013-03-09 23:11:00,66.0,34.0,-100.00,NW,305,4.0,7.0,30,0.00,,,0.00,0.000000,,2013-03-10 04:11:00,
2013-03-09 23:21:00,66.0,34.0,-100.00,NW,305,4.0,7.0,30,0.00,,,0.00,0.000000,,2013-03-10 04:21:00,
2013-03-09 23:52:00,64.0,34.0,-100.00,NNE,30,6.0,10.0,33,0.00,,,0.00,0.000000,,2013-03-10 04:52:00,